Weather observations for the past three days for
Chillicothe Ross County Airport
Imperial (Metric)
Date Time (edt) Wind (mph) Vis. (mi.) Weather Sky Cond. Temperature (ºF) Relative Humidity Wind Chill (°F) Heat Index (°F) Pressure Precipitation (in)
Air Dwpt 6 hour altimeter (in) sea level (mb) 1 hr 3 hr 6 hr
Max. Min.
08 17:15 SW 9 10.00 Overcast OVC080 66.2 33.8 30% 29.84 0.0
08 16:56 SW 10 10.00 Overcast OVC080 66.2 35.6 32% 29.85 0.0
08 15:59 SW 16 10.00 Mostly Cloudy SCT080 SCT100 BKN120 71.6 33.8 25% 29.86 0.0
08 15:38 SW 18 10.00 Mostly Cloudy SCT080 BKN110 71.6 69.8 94% 29.87 0.0
08 15:10 SW 13 10.00 Overcast SCT075 OVC110 68 33.8 28% 29.88 0.0
08 14:52 SW 15 10.00 Overcast SCT075 SCT090 OVC110 68 33.8 28% 29.89 0.0
08 14:33 SW 17 10.00 Mostly Cloudy SCT075 SCT090 BKN120 69.8 33.8 27% 29.9 0.0
08 14:09 SW 8 10.00 Partly Cloudy SCT075 SCT010 69.8 33.8 27% 29.9 0.0
08 13:49 W 13 10.00 Fair CLR 69.8 33.8 27% 29.91 0.0
08 13:29 W 17 10.00 Fair CLR 68 32 26% 29.93 0.0
08 13:09 W 16 10.00 Fair CLR 68 33.8 28% 29.93 0.0
08 12:49 W 14 10.00 Mostly Cloudy BKN010 68 35.6 30% 29.94 0.0
08 12:30 W 10 10.00 Partly Cloudy SCT010 68 35.6 30% 29.95 0.0
08 11:52 SW 14 10.00 Partly Cloudy SCT100 66.2 35.6 32% 29.97 0.0
08 11:31 SW 17 10.00 Fair CLR 64.4 35.6 34% 29.98 0.0
08 11:11 SW 14 10.00 Fair CLR 62.6 35.6 37% 0 0.0
08 10:51 W 10 10.00 Mostly Cloudy BKN080 60.8 33.8 36% 29.99 0.0
08 10:32 S 3 10.00 Overcast BKN075 OVC090 57.2 35.6 44% 29.99 0.0
08 09:52 SW 7 10.00 Mostly Cloudy BKN065 BKN100 55.4 35.6 47% 30 0.0
08 09:32 SW 7 10.00 Partly Cloudy SCT010 55.4 35.6 47% 30 0.0
08 09:15 S 5 10.00 Mostly Cloudy BKN010 53.6 35.6 51% 30 0.0
08 08:53 S 5 10.00 Mostly Cloudy BKN110 51.8 35.6 54% 30 0.0
08 08:31 S 7 10.00 Partly Cloudy SCT120 50 37.4 62% 48 30 0.0
08 08:13 S 5 10.00 Partly Cloudy SCT120 46.4 37.4 71% 45 30 0.0
08 07:32 S 3 10.00 Partly Cloudy SCT080 SCT012 42.8 37.4 81% 29.99 0.0
08 07:13 S 3 10.00 Partly Cloudy SCT075 41 37.4 87% 29.98 0.0
08 06:53 S 5 10.00 Partly Cloudy SCT075 41 37.4 87% 38 29.98 0.0
08 06:34 Calm 10.00 Partly Cloudy SCT075 39.2 37.4 93% 29.98 0.0
08 06:14 S 3 10.00 Fair CLR 39.2 37.4 93% 29.98 0.0
08 05:55 Calm 10.00 Fair CLR 37.4 35.6 93% 29.98 0.0
08 05:20 Calm 10.00 Fair CLR 39.2 37.4 93% 29.98 0.0
08 04:53 Calm 10.00 Fair CLR 39.2 35.6 87% 29.99 0.0
08 04:37 Calm 10.00 Fair CLR 39.2 35.6 87% 29.97 0.0
08 04:17 Calm 10.00 Fair CLR 39.2 35.6 87% 29.97 0.0
08 03:59 Calm 10.00 Fair CLR 39.2 35.6 87% 0 0.0
08 03:31 S 3 10.00 Fair CLR 41 35.6 81% 29.97 0.0
08 03:13 S 5 10.00 Fair CLR 41 35.6 81% 38 29.97 0.0
08 02:53 S 3 10.00 Fair CLR 41 35.6 81% 29.97 0.0
08 02:33 S 5 10.00 Fair CLR 41 35.6 81% 38 29.98 0.0
08 02:14 Calm 10.00 Fair CLR 41 35.6 81% 29.98 0.0
08 00:53 Calm 10.00 Fair CLR 42.8 35.6 76% 29.99 0.0
08 00:36 Calm 10.00 Fair CLR 42.8 33.8 71% 29.99 0.0
08 00:13 S 3 10.00 Fair CLR 42.8 35.6 76% 29.99 0.0
07 23:52 SW 3 10.00 Fair CLR 44.6 35.6 71% 29.98 0.0
07 23:31 S 3 10.00 Fair CLR 42.8 35.6 76% 29.98 0.0
07 23:12 Calm 10.00 Fair CLR 41 35.6 81% 29.98 0.0
07 22:53 Calm 10.00 Fair CLR 41 37.4 87% 0 0.0
07 22:32 SW 3 10.00 Fair CLR 42.8 37.4 81% 29.98 0.0
07 22:12 SW 3 10.00 Fair CLR 44.6 37.4 76% 29.98 0.0
07 21:52 SW 3 10.00 Fair CLR 44.6 37.4 76% 29.98 0.0
07 21:32 SW 3 10.00 Fair CLR 46.4 37.4 71% 29.98 0.0
07 21:15 SW 3 10.00 Fair CLR 44.6 37.4 76% 29.98 0.0
07 20:54 SW 3 10.00 Fair CLR 48.2 33.8 58% 29.97 0.0
07 20:33 Calm 10.00 Fair CLR 50 33.8 54% 29.97 0.0
07 20:00 NW 3 10.00 Fair CLR 53.6 30.2 41% 29.96 0.0
07 19:29 NW 6 10.00 Fair CLR 57.2 26.6 31% 29.96 0.0
07 19:11 NW 7 10.00 Fair CLR 57.2 26.6 31% 29.96 0.0
07 18:51 NW 9 10.00 Partly Cloudy SCT070 57.2 26.6 31% 29.96 0.0
07 18:34 NW 10 10.00 Partly Cloudy SCT070 57.2 26.6 31% 29.96 0.0
07 18:12 NW 12 10.00 Partly Cloudy SCT070 59 26.6 29% 29.96 0.0
07 17:53 NW 16 10.00 Fair CLR 59 26.6 29% 29.96 0.0
07 17:32 NW 13 10.00 Fair CLR 59 26.6 29% 29.96 0.0
07 17:15 NW 15 10.00 Partly Cloudy SCT070 59 26.6 29% 29.95 0.0
07 16:56 NW 9 10.00 Fair CLR 59 26.6 29% 29.95 0.0
07 16:35 NW 15 10.00 Fair CLR 59 28.4 31% 29.94 0.0
07 16:17 N 16 10.00 Partly Cloudy SCT065 59 28.4 31% 29.94 0.0
07 15:58 NW 15 10.00 Partly Cloudy SCT065 59 26.6 29% 29.95 0.0
07 15:39 W 12 10.00 Partly Cloudy SCT065 60.8 28.4 29% 29.95 0.0
07 15:22 NW 10 10.00 Partly Cloudy SCT065 60.8 28.4 29% 29.95 0.0
07 14:57 NW 12 10.00 Fair CLR 59 28.4 31% 29.95 0.0
07 14:39 NW 12 10.00 Fair CLR 59 26.6 29% 29.95 0.0
07 14:19 NW 13 10.00 Fair CLR 59 26.6 29% 29.96 0.0
07 13:55 NW 15 10.00 Fair CLR 57.2 28.4 33% 29.96 0.0
07 13:36 NW 10 10.00 Fair CLR 57.2 26.6 31% 29.97 0.0
07 13:15 N 13 10.00 Fair CLR 57.2 26.6 31% 29.98 0.0
07 12:59 W 14 10.00 Fair CLR 57.2 30.2 36% 29.98 0.0
07 12:39 W 15 10.00 Fair CLR 57.2 28.4 33% 29.98 0.0
07 12:18 W 12 10.00 Fair CLR 57.2 28.4 33% 29.98 0.0
07 11:58 W 16 10.00 Fair CLR 55.4 30.2 38% 29.99 0.0
07 11:38 NW 12 10.00 Fair CLR 55.4 30.2 38% 29.98 0.0
07 11:18 NW 14 10.00 Fair CLR 55.4 32 41% 29.98 0.0
07 10:57 W 9 10.00 Fair CLR 55.4 32 41% 29.98 0.0
07 10:40 NW 12 10.00 Fair CLR 55.4 33.8 44% 29.98 0.0
07 10:22 W 12 10.00 Fair CLR 53.6 32 44% 29.98 0.0
07 10:03 W 6 10.00 Fair CLR 51.8 33.8 50% 29.98 0.0
07 09:36 NW 7 10.00 Fair CLR 51.8 35.6 54% 29.99 0.0
07 09:18 W 8 10.00 Fair CLR 50 33.8 54% 47 29.99 0.0
07 08:55 NW 8 10.00 Fair CLR 50 35.6 58% 47 30 0.0
07 08:36 NW 8 10.00 Fair CLR 48.2 37.4 66% 45 30 0.0
07 08:14 NW 7 10.00 Fair CLR 46.4 37.4 71% 43 30 0.0
07 07:54 NW 8 10.00 Fair CLR 46.4 39.2 76% 43 30 0.0
07 07:38 NW 6 10.00 Fair CLR 44.6 42.8 93% 42 29.99 0.0
07 07:11 Calm 10.00 Fair CLR 41 41 100% 29.99 0.0
07 06:49 Calm 10.00 Fair CLR 39.2 39.2 100% 29.98 0.0
07 06:30 Calm 10.00 Fair CLR 37.4 37.4 100% 29.98 0.0
07 06:09 Calm 10.00 Fair CLR 39.2 39.2 100% 29.98 0.0
07 05:49 Calm 10.00 Fair CLR 37.4 37.4 100% 29.98 0.0
07 05:29 Calm 10.00 Partly Cloudy SCT010 39.2 39.2 100% 29.97 0.0
07 05:11 Calm 10.00 Partly Cloudy SCT050 39.2 39.2 100% 29.97 0.0
07 04:51 Calm 10.00 Partly Cloudy SCT050 39.2 39.2 100% 29.97 0.0
07 04:31 Calm 10.00 Mostly Cloudy BKN050 39.2 39.2 100% 29.97 0.0
07 04:12 Calm 10.00 Mostly Cloudy BKN050 39.2 39.2 100% 29.97 0.0
07 03:51 SW 3 10.00 Partly Cloudy SCT050 41 41 100% 29.97 0.0
07 03:31 Calm 10.00 Partly Cloudy SCT050 SCT065 39.2 39.2 100% 29.97 0.0
07 03:13 W 3 10.00 Partly Cloudy SCT060 39.2 39.2 100% 29.97 0.0
07 02:35 SW 3 10.00 Fair CLR 41 41 100% 29.97 0.0
07 02:16 W 3 10.00 Fair CLR 41 41 100% 29.97 0.0
07 01:57 W 3 10.00 Fair CLR 41 41 100% 0 0.0
07 01:34 W 3 10.00 Fair CLR 41 41 100% 29.98 0.0
07 01:13 W 3 10.00 Fair CLR 41 41 100% 29.98 0.0
07 00:54 W 3 10.00 Fair CLR 42.8 41 93% 29.99 0.0
07 00:35 Calm 10.00 Fair CLR 42.8 42.8 100% 29.98 0.0
07 00:15 SW 3 10.00 Fair CLR 42.8 42.8 100% 29.99 0.0
06 23:54 Calm 10.00 Fair CLR 44.6 41 87% 29.98 0.0
06 23:34 SW 3 10.00 Fair CLR 44.6 41 87% 29.98 0.0
06 23:19 Calm 10.00 Fair CLR 44.6 41 87% 29.98 0.0
06 22:53 Calm 10.00 Partly Cloudy SCT090 48.2 37.4 66% 29.99 0.0
06 22:33 NW 3 10.00 Fair CLR 50 35.6 58% 29.99 0.0
06 22:14 Calm 10.00 Partly Cloudy SCT075 50 37.4 62% 29.98 0.0
06 21:55 N 3 10.00 Mostly Cloudy BKN075 50 37.4 62% 29.98 0.0
06 21:22 N 3 10.00 Overcast OVC075 51.8 39.2 62% 0 0.0
06 20:59 N 5 10.00 Overcast OVC075 53.6 37.4 54% 0 0.0
06 20:36 N 6 10.00 Overcast OVC075 53.6 35.6 51% 0 0.0
06 20:16 N 5 10.00 Overcast OVC075 53.6 37.4 54% 29.95 0.0
06 20:00 N 8 10.00 Overcast OVC075 53.6 35.6 51% 29.93 0.0
06 19:36 N 8 10.00 Partly Cloudy SCT075 55.4 35.6 47% 29.93 0.0
06 19:19 N 9 10.00 Partly Cloudy SCT075 55.4 35.6 47% 29.93 0.0
06 18:51 NW 9 10.00 Overcast OVC075 57.2 35.6 44% 29.93 0.0
06 18:31 N 12 10.00 Overcast SCT050 OVC075 57.2 37.4 48% 29.94 0.0
06 18:12 N 12 10.00 Overcast BKN050 OVC075 57.2 37.4 48% 29.93 0.0
06 17:54 N 7 10.00 Overcast OVC050 57.2 37.4 48% 0 0.0
06 17:31 N 8 10.00 Overcast BKN050 OVC075 59 37.4 45% 29.92 0.0
06 17:11 NW 7 10.00 Overcast BKN050 OVC075 59 37.4 45% 29.91 0.0
06 16:51 N 9 10.00 Overcast BKN050 OVC075 59 35.6 42% 29.91 0.0
06 16:32 N 10 10.00 Overcast BKN050 OVC075 60.8 37.4 42% 29.91 0.0
06 16:10 N 7 10.00 Overcast SCT050 OVC075 60.8 35.6 39% 29.91 0.0
06 15:53 N 7 10.00 Overcast OVC075 60.8 37.4 42% 29.91 0.0
06 15:33 NW 8 10.00 Mostly Cloudy SCT049 BKN075 BKN110 60.8 37.4 42% 29.91 0.0
06 15:12 N 7 10.00 Partly Cloudy SCT075 60.8 37.4 42% 29.91 0.0
06 14:51 N 8 10.00 Fair CLR 60.8 35.6 39% 29.9 0.0
06 14:32 N 10 10.00 Partly Cloudy SCT080 59 37.4 45% 29.91 0.0
06 14:11 N 12 10.00 Partly Cloudy SCT080 59 37.4 45% 29.91 0.0
06 13:52 N 12 10.00 Mostly Cloudy BKN090 59 39.2 48% 29.91 0.0
06 13:31 N 10 10.00 Mostly Cloudy BKN090 59 37.4 45% 29.91 0.0
06 13:12 N 8 10.00 Partly Cloudy SCT090 59 41 51% 29.92 0.0
06 12:51 NW 10 10.00 Partly Cloudy SCT090 57.2 41 55% 29.92 0.0
06 12:31 N 12 10.00 Mostly Cloudy BKN090 55.4 41 59% 0 0.0
06 12:14 N 10 10.00 NULL NULL 55.4 42.8 63% 29.92 0.0
06 11:55 N 10 10.00 Partly Cloudy SCT120 55.4 42.8 63% 29.91 0.0
06 11:14 NW 6 10.00 Mostly Cloudy BKN021 BKN047 53.6 44.6 72% 29.91 0.0
06 10:54 N 9 10.00 Overcast SCT016 BKN022 OVC045 51.8 44.6 77% 29.89 0.0
06 10:33 N 12 10.00 Overcast SCT016 BKN022 OVC039 51.8 46.4 82% 29.89 0.0
06 10:18 N 8 10.00 Overcast BKN014 BKN019 OVC037 51.8 48.2 88% 29.89 0.0
06 10:00 N 8 10.00 NULL NULL 50 48.2 94% 47 29.88 0.0
06 09:40 N 8 10.00 Overcast BKN012 BKN016 OVC031 50 50 100% 47 29.88 0.0
06 08:51 N 8 10.00 Overcast OVC009 48.2 48.2 100% 45 29.86 0.0
06 08:30 N 7 5.00 Overcast BKN004 BKN009 OVC012 48.2 48.2 100% 46 29.85 0.0
06 08:10 N 8 4.00 Overcast BKN004 OVC009 46.4 46.4 100% 43 29.85 0.0
06 07:54 N 12 2.50 Overcast BKN004 OVC009 46.4 46.4 100% 42 29.84 0.0
06 07:34 N 10 2.50 Overcast BKN006 OVC010 46.4 46.4 100% 42 29.82 0.0
06 07:15 N 9 3.00 Overcast SCT006 OVC011 46.4 46.4 100% 42 29.81 0.0
06 06:53 N 6 10.00 Overcast OVC011 46.4 46.4 100% 44 29.8 0.0
06 06:36 N 8 10.00 Overcast OVC011 46.4 46.4 100% 43 29.79 0.0
06 06:15 NW 7 10.00 Overcast OVC009 46.4 46.4 100% 43 29.8 0.0
06 05:55 N 9 10.00 Overcast OVC009 46.4 46.4 100% 42 29.78 0.0
06 05:34 N 10 10.00 Overcast OVC009 46.4 46.4 100% 42 29.78 0.0
06 05:13 N 9 10.00 Overcast OVC007 48.2 48.2 100% 45 29.77 0.0
06 04:52 N 7 10.00 Overcast OVC007 48.2 48.2 100% 46 29.76 0.0
06 04:31 N 13 7.00 Overcast OVC007 48.2 48.2 100% 43 29.75 0.0
06 03:59 N 12 10.00 Overcast BKN005 OVC012 48.2 48.2 100% 44 29.75 0.0
06 03:34 N 12 7.00 Overcast BKN005 OVC010 50 50 100% 46 29.74 0.0
06 03:14 N 12 5.00 Overcast SCT005 OVC010 51.8 51.8 100% 29.73 0.0
06 02:52 Calm 5.00 Overcast SCT006 BKN011 OVC016 57.2 57.2 100% 29.73 0.0
06 02:34 Calm 5.00 Overcast SCT012 BKN016 OVC022 57.2 57.2 100% 29.73 0.0
06 02:13 Calm 3.00 Overcast SCT017 BKN222 OVC033 57.2 57.2 100% 29.73 0.0
06 01:57 S 3 10.00 Overcast SCT016 SCT025 OVC030 57.2 57.2 100% 29.73 0.0
06 01:36 Calm 2.00 NULL NULL 57.2 57.2 100% 29.74 0.0
06 01:16 Calm 4.00 Overcast SCT030 BKN036 OVC050 57.2 57.2 100% 29.75 0.0
06 00:55 Calm 4.00 Overcast SCT048 BKN055 OVC075 57.2 57.2 100% 29.75 0.0
06 00:21 Calm 7.00 Overcast SCT048 BKN050 OVC010 57.2 57.2 100% 0 0.0
05 23:57 E 3 7.00 Overcast SCT048 BKN080 OVC090 57.2 57.2 100% 0 0.0
05 23:40 E 3 5.00 Overcast SCT060 OVC090 57.2 57.2 100% 0 0.0
05 23:18 Calm 5.00 Overcast SCT031 BKN070 OVC090 57.2 57.2 100% 0 0.0
05 22:45 Calm 5.00 Overcast SCT030 BKN070 OVC090 57.2 57.2 100% 29.8 0.0
05 22:13 W 3 4.00 Overcast SCT022 SCT030 OVC055 59 57.2 94% 29.79 0.0
05 21:56 W 5 10.00 Overcast BKN065 OVC080 59 57.2 94% 29.78 0.0
05 21:32 SW 5 10.00 Overcast BKN070 BKN075 OVC090 59 55.4 88% 29.77 0.0
05 21:15 S 5 10.00 Overcast BKN070 OVC090 60.8 55.4 83% 29.76 0.0
05 20:54 S 6 10.00 NULL NULL 60.8 55.4 83% 29.77 0.0
05 20:34 S 3 10.00 Overcast SCT055 OVC075 60.8 55.4 83% 0 0.0
05 20:02 SW 5 10.00 Overcast SCT070 BKN075 OVC095 62.6 55.4 77% 29.77 0.0
05 19:34 SW 7 10.00 Overcast BKN095 OVC120 60.8 57.2 88% 29.79 0.0
05 19:18 Calm 10.00 Overcast BKN085 OVC010 60.8 57.2 88% 29.79 0.0
05 18:57 SW 6 10.00 Overcast OVC085 62.6 57.2 83% 29.79 0.0
05 18:36 SW 10 7.00 Overcast SCT025 BKN050 OVC085 62.6 55.4 77% 29.8 0.0
05 18:14 SW 8 10.00 Overcast BKN049 BKN060 OVC075 64.4 53.6 68% 29.8 0.0
05 17:55 S 17 10.00 Mostly Cloudy SCT048 SCT050 BKN070 68 50 53% 29.79 0.0
Date Time (edt) Wind (mph) Vis. (mi.) Weather Sky Cond. Air Dwpt Max. Min. Relative Humidity Wind Chill (°F) Heat Index (°F) altimeter (in) sea level (mb) 1 hr 3 hr 6 hr
6 hour
Temperature (ºF) Pressure Precipitation (in)